sensor_id;sensor_type;location;lat;lon;timestamp;temperature;humidity
3312;DHT22;1668;49.648;8.570;2023-06-10T00:01:37;22.90;99.90
3312;DHT22;1668;49.648;8.570;2023-06-10T00:04:05;22.90;99.90
3312;DHT22;1668;49.648;8.570;2023-06-10T00:06:32;22.90;99.90
3312;DHT22;1668;49.648;8.570;2023-06-10T00:09:02;22.80;99.90
3312;DHT22;1668;49.648;8.570;2023-06-10T00:11:30;22.80;99.90
3312;DHT22;1668;49.648;8.570;2023-06-10T00:13:57;22.80;99.90
3312;DHT22;1668;49.648;8.570;2023-06-10T00:16:24;22.90;99.90
3312;DHT22;1668;49.648;8.570;2023-06-10T00:18:51;22.90;99.90
3312;DHT22;1668;49.648;8.570;2023-06-10T00:21:19;22.90;99.90
3312;DHT22;1668;49.648;8.570;2023-06-10T00:23:46;22.90;99.90
3312;DHT22;1668;49.648;8.570;2023-06-10T00:26:13;22.80;99.90
3312;DHT22;1668;49.648;8.570;2023-06-10T00:28:40;22.70;99.90
3312;DHT22;1668;49.648;8.570;2023-06-10T00:31:07;22.70;99.90
3312;DHT22;1668;49.648;8.570;2023-06-10T00:33:34;22.70;99.90
3312;DHT22;1668;49.648;8.570;2023-06-10T00:36:01;22.70;99.90
3312;DHT22;1668;49.648;8.570;2023-06-10T00:38:29;22.60;99.90
3312;DHT22;1668;49.648;8.570;2023-06-10T00:40:57;22.60;99.90
3312;DHT22;1668;49.648;8.570;2023-06-10T00:43:24;22.50;99.90
3312;DHT22;1668;49.648;8.570;2023-06-10T00:45:51;22.40;99.90
3312;DHT22;1668;49.648;8.570;2023-06-10T00:48:18;22.40;99.90
3312;DHT22;1668;49.648;8.570;2023-06-10T00:50:46;22.50;99.90
3312;DHT22;1668;49.648;8.570;2023-06-10T00:53:13;22.40;99.90
3312;DHT22;1668;49.648;8.570;2023-06-10T00:55:42;22.40;99.90
3312;DHT22;1668;49.648;8.570;2023-06-10T00:58:09;22.30;99.90
3312;DHT22;1668;49.648;8.570;2023-06-10T01:00:36;22.30;99.90
3312;DHT22;1668;49.648;8.570;2023-06-10T01:03:03;22.30;99.90
3312;DHT22;1668;49.648;8.570;2023-06-10T01:05:33;22.30;99.90
3312;DHT22;1668;49.648;8.570;2023-06-10T01:08:03;22.30;99.90
3312;DHT22;1668;49.648;8.570;2023-06-10T01:10:38;22.30;99.90
3312;DHT22;1668;49.648;8.570;2023-06-10T01:13:09;22.30;99.90
3312;DHT22;1668;49.648;8.570;2023-06-10T01:15:37;22.30;99.90
3312;DHT22;1668;49.648;8.570;2023-06-10T01:18:07;22.30;99.90
3312;DHT22;1668;49.648;8.570;2023-06-10T01:20:36;22.20;99.90
3312;DHT22;1668;49.648;8.570;2023-06-10T01:23:07;22.10;99.90
3312;DHT22;1668;49.648;8.570;2023-06-10T01:25:38;22.10;99.90
3312;DHT22;1668;49.648;8.570;2023-06-10T01:28:10;22.10;99.90
3312;DHT22;1668;49.648;8.570;2023-06-10T01:30:43;22.10;99.90
3312;DHT22;1668;49.648;8.570;2023-06-10T01:33:12;22.10;99.90
3312;DHT22;1668;49.648;8.570;2023-06-10T01:35:43;22.10;99.90
3312;DHT22;1668;49.648;8.570;2023-06-10T01:38:12;22.10;99.90
3312;DHT22;1668;49.648;8.570;2023-06-10T01:40:41;22.10;99.90
3312;DHT22;1668;49.648;8.570;2023-06-10T01:43:08;22.10;99.90
3312;DHT22;1668;49.648;8.570;2023-06-10T01:45:35;22.00;99.90
3312;DHT22;1668;49.648;8.570;2023-06-10T01:48:02;22.00;99.90
3312;DHT22;1668;49.648;8.570;2023-06-10T01:50:30;22.00;99.90
3312;DHT22;1668;49.648;8.570;2023-06-10T01:52:57;21.90;99.90
3312;DHT22;1668;49.648;8.570;2023-06-10T01:55:26;21.90;99.90
3312;DHT22;1668;49.648;8.570;2023-06-10T01:57:53;21.80;99.90
3312;DHT22;1668;49.648;8.570;2023-06-10T02:00:20;21.80;99.90
3312;DHT22;1668;49.648;8.570;2023-06-10T02:02:47;21.70;99.90
3312;DHT22;1668;49.648;8.570;2023-06-10T02:05:14;21.60;99.90
3312;DHT22;1668;49.648;8.570;2023-06-10T02:07:40;21.50;99.90
3312;DHT22;1668;49.648;8.570;2023-06-10T02:10:08;21.50;99.90
3312;DHT22;1668;49.648;8.570;2023-06-10T02:12:36;21.40;99.90
3312;DHT22;1668;49.648;8.570;2023-06-10T02:15:03;21.30;99.90
3312;DHT22;1668;49.648;8.570;2023-06-10T02:17:30;21.30;99.90
3312;DHT22;1668;49.648;8.570;2023-06-10T02:19:58;21.30;99.90
3312;DHT22;1668;49.648;8.570;2023-06-10T02:22:25;21.20;99.90
3312;DHT22;1668;49.648;8.570;2023-06-10T02:24:52;21.10;99.90
3312;DHT22;1668;49.648;8.570;2023-06-10T02:27:20;21.00;99.90
3312;DHT22;1668;49.648;8.570;2023-06-10T02:29:48;21.00;99.90
3312;DHT22;1668;49.648;8.570;2023-06-10T02:32:15;20.90;99.90
3312;DHT22;1668;49.648;8.570;2023-06-10T02:34:42;20.90;99.90
3312;DHT22;1668;49.648;8.570;2023-06-10T02:37:09;20.90;1.00
3312;DHT22;1668;49.648;8.570;2023-06-10T02:39:37;20.80;1.00
3312;DHT22;1668;49.648;8.570;2023-06-10T02:42:04;20.80;1.00
3312;DHT22;1668;49.648;8.570;2023-06-10T02:44:32;20.80;1.00
3312;DHT22;1668;49.648;8.570;2023-06-10T02:47:00;20.70;1.00
3312;DHT22;1668;49.648;8.570;2023-06-10T02:49:27;20.70;1.00
3312;DHT22;1668;49.648;8.570;2023-06-10T02:51:54;20.60;1.00
3312;DHT22;1668;49.648;8.570;2023-06-10T02:54:22;20.60;1.00
3312;DHT22;1668;49.648;8.570;2023-06-10T02:56:52;20.60;1.00
3312;DHT22;1668;49.648;8.570;2023-06-10T02:59:21;20.50;1.00
3312;DHT22;1668;49.648;8.570;2023-06-10T03:01:48;20.40;1.00
3312;DHT22;1668;49.648;8.570;2023-06-10T03:04:16;20.40;1.00
3312;DHT22;1668;49.648;8.570;2023-06-10T03:06:44;20.40;1.00
3312;DHT22;1668;49.648;8.570;2023-06-10T03:09:12;20.40;1.00
3312;DHT22;1668;49.648;8.570;2023-06-10T03:11:39;20.30;1.00
3312;DHT22;1668;49.648;8.570;2023-06-10T03:14:06;20.30;1.00
3312;DHT22;1668;49.648;8.570;2023-06-10T03:16:33;20.30;1.00
3312;DHT22;1668;49.648;8.570;2023-06-10T03:19:00;20.20;1.00
3312;DHT22;1668;49.648;8.570;2023-06-10T03:21:28;20.10;1.00
3312;DHT22;1668;49.648;8.570;2023-06-10T03:23:55;20.00;1.00
3312;DHT22;1668;49.648;8.570;2023-06-10T03:26:22;20.00;1.00
3312;DHT22;1668;49.648;8.570;2023-06-10T03:28:49;19.90;1.00
3312;DHT22;1668;49.648;8.570;2023-06-10T03:31:16;19.80;1.00
3312;DHT22;1668;49.648;8.570;2023-06-10T03:33:43;19.70;1.00
3312;DHT22;1668;49.648;8.570;2023-06-10T03:36:10;19.60;1.00
3312;DHT22;1668;49.648;8.570;2023-06-10T03:38:38;19.50;1.00
3312;DHT22;1668;49.648;8.570;2023-06-10T03:41:05;19.50;1.00
3312;DHT22;1668;49.648;8.570;2023-06-10T03:43:32;19.20;1.00
3312;DHT22;1668;49.648;8.570;2023-06-10T03:45:59;19.20;1.00
3312;DHT22;1668;49.648;8.570;2023-06-10T03:48:26;19.10;1.00
3312;DHT22;1668;49.648;8.570;2023-06-10T03:50:53;19.00;1.00
3312;DHT22;1668;49.648;8.570;2023-06-10T03:53:20;18.90;1.00
3312;DHT22;1668;49.648;8.570;2023-06-10T03:55:49;18.90;1.00
3312;DHT22;1668;49.648;8.570;2023-06-10T03:58:16;18.90;1.00
3312;DHT22;1668;49.648;8.570;2023-06-10T04:00:43;18.90;1.00
3312;DHT22;1668;49.648;8.570;2023-06-10T04:03:11;18.80;1.00
3312;DHT22;1668;49.648;8.570;2023-06-10T04:05:40;18.90;1.00
3312;DHT22;1668;49.648;8.570;2023-06-10T04:08:07;18.90;1.00
3312;DHT22;1668;49.648;8.570;2023-06-10T04:10:34;18.80;1.00
3312;DHT22;1668;49.648;8.570;2023-06-10T04:13:02;18.70;1.00
3312;DHT22;1668;49.648;8.570;2023-06-10T04:15:30;18.60;1.00
3312;DHT22;1668;49.648;8.570;2023-06-10T04:17:58;18.70;1.00
3312;DHT22;1668;49.648;8.570;2023-06-10T04:20:26;18.70;1.00
3312;DHT22;1668;49.648;8.570;2023-06-10T04:22:52;18.60;1.00
3312;DHT22;1668;49.648;8.570;2023-06-10T04:25:19;18.60;1.00
3312;DHT22;1668;49.648;8.570;2023-06-10T04:27:46;18.50;1.00
3312;DHT22;1668;49.648;8.570;2023-06-10T04:30:15;18.50;1.00
3312;DHT22;1668;49.648;8.570;2023-06-10T04:32:43;18.50;1.00
3312;DHT22;1668;49.648;8.570;2023-06-10T04:35:11;18.50;38.30
3312;DHT22;1668;49.648;8.570;2023-06-10T04:37:38;18.50;19.60
3312;DHT22;1668;49.648;8.570;2023-06-10T04:40:07;18.60;24.80
3312;DHT22;1668;49.648;8.570;2023-06-10T04:42:34;18.50;47.70
3312;DHT22;1668;49.648;8.570;2023-06-10T04:45:01;18.40;87.70
3312;DHT22;1668;49.648;8.570;2023-06-10T04:47:30;18.40;99.90
3312;DHT22;1668;49.648;8.570;2023-06-10T04:49:58;18.50;99.90
3312;DHT22;1668;49.648;8.570;2023-06-10T04:52:25;18.60;53.00
3312;DHT22;1668;49.648;8.570;2023-06-10T04:54:52;18.60;79.70
3312;DHT22;1668;49.648;8.570;2023-06-10T04:57:20;18.70;29.80
3312;DHT22;1668;49.648;8.570;2023-06-10T04:59:47;18.70;76.40
3312;DHT22;1668;49.648;8.570;2023-06-10T05:02:14;18.70;97.70
3312;DHT22;1668;49.648;8.570;2023-06-10T05:04:42;18.70;86.70
3312;DHT22;1668;49.648;8.570;2023-06-10T05:07:09;18.70;90.30
3312;DHT22;1668;49.648;8.570;2023-06-10T05:09:36;18.70;1.00
3312;DHT22;1668;49.648;8.570;2023-06-10T05:12:04;18.80;99.90
3312;DHT22;1668;49.648;8.570;2023-06-10T05:14:32;18.70;99.90
3312;DHT22;1668;49.648;8.570;2023-06-10T05:16:59;18.80;62.10
3312;DHT22;1668;49.648;8.570;2023-06-10T05:19:26;18.80;58.70
3312;DHT22;1668;49.648;8.570;2023-06-10T05:21:54;18.80;63.20
3312;DHT22;1668;49.648;8.570;2023-06-10T05:24:21;18.80;1.00
3312;DHT22;1668;49.648;8.570;2023-06-10T05:26:48;18.90;65.10
3312;DHT22;1668;49.648;8.570;2023-06-10T05:29:15;19.00;71.90
3312;DHT22;1668;49.648;8.570;2023-06-10T05:31:42;19.00;73.00
3312;DHT22;1668;49.648;8.570;2023-06-10T05:34:09;19.10;75.50
3312;DHT22;1668;49.648;8.570;2023-06-10T05:36:36;19.10;71.60
3312;DHT22;1668;49.648;8.570;2023-06-10T05:39:05;19.20;1.00
3312;DHT22;1668;49.648;8.570;2023-06-10T05:41:31;19.20;66.10
3312;DHT22;1668;49.648;8.570;2023-06-10T05:43:58;19.30;69.60
3312;DHT22;1668;49.648;8.570;2023-06-10T05:46:25;19.40;70.40
3312;DHT22;1668;49.648;8.570;2023-06-10T05:48:52;19.40;75.20
3312;DHT22;1668;49.648;8.570;2023-06-10T05:51:19;19.50;71.10
3312;DHT22;1668;49.648;8.570;2023-06-10T05:53:46;19.60;72.10
3312;DHT22;1668;49.648;8.570;2023-06-10T05:56:14;19.60;76.30
3312;DHT22;1668;49.648;8.570;2023-06-10T05:58:41;19.70;75.70
3312;DHT22;1668;49.648;8.570;2023-06-10T06:01:08;19.70;70.10
3312;DHT22;1668;49.648;8.570;2023-06-10T06:03:35;19.80;67.90
3312;DHT22;1668;49.648;8.570;2023-06-10T06:06:03;19.90;67.80
3312;DHT22;1668;49.648;8.570;2023-06-10T06:08:30;19.90;67.20
3312;DHT22;1668;49.648;8.570;2023-06-10T06:10:57;20.00;70.70
3312;DHT22;1668;49.648;8.570;2023-06-10T06:13:25;20.10;70.50
3312;DHT22;1668;49.648;8.570;2023-06-10T06:15:52;20.10;72.40
3312;DHT22;1668;49.648;8.570;2023-06-10T06:18:19;20.20;75.20
3312;DHT22;1668;49.648;8.570;2023-06-10T06:20:46;20.20;76.10
3312;DHT22;1668;49.648;8.570;2023-06-10T06:23:13;20.30;73.70
3312;DHT22;1668;49.648;8.570;2023-06-10T06:25:40;20.40;74.30
3312;DHT22;1668;49.648;8.570;2023-06-10T06:28:07;20.50;76.50
3312;DHT22;1668;49.648;8.570;2023-06-10T06:30:36;20.50;76.60
3312;DHT22;1668;49.648;8.570;2023-06-10T06:33:03;20.60;74.80
3312;DHT22;1668;49.648;8.570;2023-06-10T06:35:31;20.60;75.70
3312;DHT22;1668;49.648;8.570;2023-06-10T06:37:59;20.70;75.30
3312;DHT22;1668;49.648;8.570;2023-06-10T06:40:26;20.70;75.10
3312;DHT22;1668;49.648;8.570;2023-06-10T06:42:53;20.80;75.30
3312;DHT22;1668;49.648;8.570;2023-06-10T06:45:20;20.90;75.30
3312;DHT22;1668;49.648;8.570;2023-06-10T06:47:48;20.90;76.20
3312;DHT22;1668;49.648;8.570;2023-06-10T06:50:15;21.00;74.80
3312;DHT22;1668;49.648;8.570;2023-06-10T06:52:43;21.10;76.20
3312;DHT22;1668;49.648;8.570;2023-06-10T06:55:09;21.10;74.70
3312;DHT22;1668;49.648;8.570;2023-06-10T06:57:36;21.10;74.10
3312;DHT22;1668;49.648;8.570;2023-06-10T07:00:04;21.20;74.10
3312;DHT22;1668;49.648;8.570;2023-06-10T07:02:34;21.30;74.30
3312;DHT22;1668;49.648;8.570;2023-06-10T07:05:02;21.40;99.90
3312;DHT22;1668;49.648;8.570;2023-06-10T07:07:29;21.40;84.80
3312;DHT22;1668;49.648;8.570;2023-06-10T07:09:56;21.50;84.20
3312;DHT22;1668;49.648;8.570;2023-06-10T07:12:23;21.60;79.30
3312;DHT22;1668;49.648;8.570;2023-06-10T07:14:50;21.70;77.60
3312;DHT22;1668;49.648;8.570;2023-06-10T07:17:17;21.80;80.40
3312;DHT22;1668;49.648;8.570;2023-06-10T07:19:44;21.80;80.70
3312;DHT22;1668;49.648;8.570;2023-06-10T07:22:13;21.90;78.20
3312;DHT22;1668;49.648;8.570;2023-06-10T07:24:40;21.90;76.80
3312;DHT22;1668;49.648;8.570;2023-06-10T07:27:07;22.00;76.90
3312;DHT22;1668;49.648;8.570;2023-06-10T07:29:34;22.00;76.90
3312;DHT22;1668;49.648;8.570;2023-06-10T07:32:02;22.00;77.00
3312;DHT22;1668;49.648;8.570;2023-06-10T07:34:29;22.20;77.30
3312;DHT22;1668;49.648;8.570;2023-06-10T07:36:56;22.40;75.70
3312;DHT22;1668;49.648;8.570;2023-06-10T07:39:24;22.50;75.20
3312;DHT22;1668;49.648;8.570;2023-06-10T07:41:51;22.50;74.90
3312;DHT22;1668;49.648;8.570;2023-06-10T07:44:19;22.70;73.50
3312;DHT22;1668;49.648;8.570;2023-06-10T07:46:46;22.70;73.60
3312;DHT22;1668;49.648;8.570;2023-06-10T07:49:13;22.80;75.70
3312;DHT22;1668;49.648;8.570;2023-06-10T07:51:40;22.80;75.70
3312;DHT22;1668;49.648;8.570;2023-06-10T07:54:07;22.90;75.00
3312;DHT22;1668;49.648;8.570;2023-06-10T07:56:35;23.00;72.00
3312;DHT22;1668;49.648;8.570;2023-06-10T07:59:02;23.10;71.30
3312;DHT22;1668;49.648;8.570;2023-06-10T08:01:29;23.10;71.50
3312;DHT22;1668;49.648;8.570;2023-06-10T08:03:57;23.20;70.70
3312;DHT22;1668;49.648;8.570;2023-06-10T08:06:24;23.30;69.90
3312;DHT22;1668;49.648;8.570;2023-06-10T08:08:50;23.40;69.60
3312;DHT22;1668;49.648;8.570;2023-06-10T08:11:17;23.40;68.70
3312;DHT22;1668;49.648;8.570;2023-06-10T08:13:46;23.50;68.20
3312;DHT22;1668;49.648;8.570;2023-06-10T08:16:13;23.60;66.80
3312;DHT22;1668;49.648;8.570;2023-06-10T08:18:40;23.70;68.40
3312;DHT22;1668;49.648;8.570;2023-06-10T08:21:07;23.80;67.00
3312;DHT22;1668;49.648;8.570;2023-06-10T08:23:34;23.90;67.40
3312;DHT22;1668;49.648;8.570;2023-06-10T08:26:01;23.90;65.10
3312;DHT22;1668;49.648;8.570;2023-06-10T08:28:29;24.00;66.00
3312;DHT22;1668;49.648;8.570;2023-06-10T08:30:57;24.10;65.70
3312;DHT22;1668;49.648;8.570;2023-06-10T08:33:24;24.10;66.30
3312;DHT22;1668;49.648;8.570;2023-06-10T08:35:50;24.20;1.00
3312;DHT22;1668;49.648;8.570;2023-06-10T08:38:17;24.20;1.00
3312;DHT22;1668;49.648;8.570;2023-06-10T08:40:44;24.20;1.00
3312;DHT22;1668;49.648;8.570;2023-06-10T08:43:17;24.30;1.00
3312;DHT22;1668;49.648;8.570;2023-06-10T08:45:49;24.40;1.00
3312;DHT22;1668;49.648;8.570;2023-06-10T08:48:19;24.50;1.00
3312;DHT22;1668;49.648;8.570;2023-06-10T08:50:47;24.60;1.00
3312;DHT22;1668;49.648;8.570;2023-06-10T08:53:18;24.70;1.00
3312;DHT22;1668;49.648;8.570;2023-06-10T08:55:50;24.70;1.00
3312;DHT22;1668;49.648;8.570;2023-06-10T08:58:18;24.80;1.00
3312;DHT22;1668;49.648;8.570;2023-06-10T09:00:45;25.00;1.00
3312;DHT22;1668;49.648;8.570;2023-06-10T09:03:12;25.20;1.00
3312;DHT22;1668;49.648;8.570;2023-06-10T09:05:41;25.20;1.00
3312;DHT22;1668;49.648;8.570;2023-06-10T09:08:08;25.40;1.00
3312;DHT22;1668;49.648;8.570;2023-06-10T09:10:36;25.50;1.00
3312;DHT22;1668;49.648;8.570;2023-06-10T09:13:03;25.40;1.00
3312;DHT22;1668;49.648;8.570;2023-06-10T09:15:30;25.50;1.00
3312;DHT22;1668;49.648;8.570;2023-06-10T09:17:57;25.40;1.00
3312;DHT22;1668;49.648;8.570;2023-06-10T09:20:25;25.40;1.00
3312;DHT22;1668;49.648;8.570;2023-06-10T09:22:53;25.60;1.00
3312;DHT22;1668;49.648;8.570;2023-06-10T09:25:34;25.70;99.90
3312;DHT22;1668;49.648;8.570;2023-06-10T09:28:01;25.80;99.90
3312;DHT22;1668;49.648;8.570;2023-06-10T09:30:30;26.00;99.90
3312;DHT22;1668;49.648;8.570;2023-06-10T09:32:59;26.20;99.90
3312;DHT22;1668;49.648;8.570;2023-06-10T09:35:27;26.30;99.90
3312;DHT22;1668;49.648;8.570;2023-06-10T09:37:56;26.40;99.90
3312;DHT22;1668;49.648;8.570;2023-06-10T09:40:23;26.50;99.90
3312;DHT22;1668;49.648;8.570;2023-06-10T09:42:53;26.50;99.90
3312;DHT22;1668;49.648;8.570;2023-06-10T09:45:21;26.50;99.90
3312;DHT22;1668;49.648;8.570;2023-06-10T09:47:51;26.70;99.90
3312;DHT22;1668;49.648;8.570;2023-06-10T09:50:19;26.70;99.90
3312;DHT22;1668;49.648;8.570;2023-06-10T09:52:46;26.60;99.90
3312;DHT22;1668;49.648;8.570;2023-06-10T09:55:15;26.80;99.90
3312;DHT22;1668;49.648;8.570;2023-06-10T09:57:42;27.00;99.90
3312;DHT22;1668;49.648;8.570;2023-06-10T10:00:14;27.00;99.90
3312;DHT22;1668;49.648;8.570;2023-06-10T10:02:48;27.20;99.90
3312;DHT22;1668;49.648;8.570;2023-06-10T10:05:16;27.20;99.90
3312;DHT22;1668;49.648;8.570;2023-06-10T10:07:44;27.20;99.90
3312;DHT22;1668;49.648;8.570;2023-06-10T10:10:12;27.40;99.90
3312;DHT22;1668;49.648;8.570;2023-06-10T10:12:42;27.50;99.90
3312;DHT22;1668;49.648;8.570;2023-06-10T10:15:10;27.50;99.90
3312;DHT22;1668;49.648;8.570;2023-06-10T10:17:40;27.50;99.90
3312;DHT22;1668;49.648;8.570;2023-06-10T10:20:08;27.50;99.90
3312;DHT22;1668;49.648;8.570;2023-06-10T10:22:39;27.50;99.90
3312;DHT22;1668;49.648;8.570;2023-06-10T10:25:10;27.50;99.90
3312;DHT22;1668;49.648;8.570;2023-06-10T10:27:44;27.50;99.90
3312;DHT22;1668;49.648;8.570;2023-06-10T10:30:12;27.60;99.90
3312;DHT22;1668;49.648;8.570;2023-06-10T10:32:56;27.70;99.90
3312;DHT22;1668;49.648;8.570;2023-06-10T10:35:24;27.80;99.90
3312;DHT22;1668;49.648;8.570;2023-06-10T10:37:52;28.00;99.90
3312;DHT22;1668;49.648;8.570;2023-06-10T10:40:20;28.10;99.90
3312;DHT22;1668;49.648;8.570;2023-06-10T10:42:49;28.00;99.90
3312;DHT22;1668;49.648;8.570;2023-06-10T10:45:16;28.00;99.90
3312;DHT22;1668;49.648;8.570;2023-06-10T10:47:45;28.10;99.90
3312;DHT22;1668;49.648;8.570;2023-06-10T10:50:14;28.20;99.90
3312;DHT22;1668;49.648;8.570;2023-06-10T10:52:53;28.20;99.90
3312;DHT22;1668;49.648;8.570;2023-06-10T10:55:22;28.30;99.90
3312;DHT22;1668;49.648;8.570;2023-06-10T10:57:58;28.30;99.90
3312;DHT22;1668;49.648;8.570;2023-06-10T11:00:27;28.30;99.90
3312;DHT22;1668;49.648;8.570;2023-06-10T11:02:58;28.30;99.90
3312;DHT22;1668;49.648;8.570;2023-06-10T11:05:35;28.30;99.90
3312;DHT22;1668;49.648;8.570;2023-06-10T11:08:02;28.60;99.90
3312;DHT22;1668;49.648;8.570;2023-06-10T11:10:31;28.80;99.90
3312;DHT22;1668;49.648;8.570;2023-06-10T11:12:59;28.70;99.90
3312;DHT22;1668;49.648;8.570;2023-06-10T11:15:27;28.60;99.90
3312;DHT22;1668;49.648;8.570;2023-06-10T11:18:08;28.70;99.90
3312;DHT22;1668;49.648;8.570;2023-06-10T11:20:45;28.80;99.90
3312;DHT22;1668;49.648;8.570;2023-06-10T11:23:32;28.90;99.90
3312;DHT22;1668;49.648;8.570;2023-06-10T11:26:20;29.00;99.90
3312;DHT22;1668;49.648;8.570;2023-06-10T11:29:10;29.10;99.90
3312;DHT22;1668;49.648;8.570;2023-06-10T11:31:45;29.30;99.90
3312;DHT22;1668;49.648;8.570;2023-06-10T11:34:13;29.20;99.90
3312;DHT22;1668;49.648;8.570;2023-06-10T11:36:41;29.00;99.90
3312;DHT22;1668;49.648;8.570;2023-06-10T11:39:11;29.00;99.90
3312;DHT22;1668;49.648;8.570;2023-06-10T11:41:39;29.20;99.90
3312;DHT22;1668;49.648;8.570;2023-06-10T11:44:10;29.20;99.90
3312;DHT22;1668;49.648;8.570;2023-06-10T11:46:37;29.30;99.90
3312;DHT22;1668;49.648;8.570;2023-06-10T11:49:04;29.40;99.90
3312;DHT22;1668;49.648;8.570;2023-06-10T11:51:34;29.50;99.90
3312;DHT22;1668;49.648;8.570;2023-06-10T11:54:02;29.40;99.90
3312;DHT22;1668;49.648;8.570;2023-06-10T11:56:30;29.30;99.90
3312;DHT22;1668;49.648;8.570;2023-06-10T11:58:58;29.30;99.90
3312;DHT22;1668;49.648;8.570;2023-06-10T12:01:32;29.20;99.90
3312;DHT22;1668;49.648;8.570;2023-06-10T12:04:00;29.10;99.90
3312;DHT22;1668;49.648;8.570;2023-06-10T12:06:40;29.30;99.90
3312;DHT22;1668;49.648;8.570;2023-06-10T12:09:17;29.50;99.90
3312;DHT22;1668;49.648;8.570;2023-06-10T12:11:45;29.50;99.90
3312;DHT22;1668;49.648;8.570;2023-06-10T12:14:12;29.50;99.90
3312;DHT22;1668;49.648;8.570;2023-06-10T12:16:40;29.60;99.90
3312;DHT22;1668;49.648;8.570;2023-06-10T12:19:14;29.80;99.90
3312;DHT22;1668;49.648;8.570;2023-06-10T12:21:41;30.00;99.90
3312;DHT22;1668;49.648;8.570;2023-06-10T12:24:09;30.10;99.90
3312;DHT22;1668;49.648;8.570;2023-06-10T12:26:40;30.20;99.90
3312;DHT22;1668;49.648;8.570;2023-06-10T12:29:18;30.30;99.90
3312;DHT22;1668;49.648;8.570;2023-06-10T12:31:58;30.50;99.90
3312;DHT22;1668;49.648;8.570;2023-06-10T12:34:30;30.60;99.90
3312;DHT22;1668;49.648;8.570;2023-06-10T12:36:57;30.50;99.90
3312;DHT22;1668;49.648;8.570;2023-06-10T12:39:24;30.60;99.90
3312;DHT22;1668;49.648;8.570;2023-06-10T12:41:52;30.60;99.90
3312;DHT22;1668;49.648;8.570;2023-06-10T12:44:31;30.70;99.90
3312;DHT22;1668;49.648;8.570;2023-06-10T12:46:59;31.00;99.90
3312;DHT22;1668;49.648;8.570;2023-06-10T12:49:27;31.30;99.90
3312;DHT22;1668;49.648;8.570;2023-06-10T12:51:54;31.30;99.90
3312;DHT22;1668;49.648;8.570;2023-06-10T12:54:21;31.40;99.90
3312;DHT22;1668;49.648;8.570;2023-06-10T12:56:48;31.50;99.90
3312;DHT22;1668;49.648;8.570;2023-06-10T12:59:15;31.60;99.90
3312;DHT22;1668;49.648;8.570;2023-06-10T13:01:42;31.60;99.90
3312;DHT22;1668;49.648;8.570;2023-06-10T13:04:10;31.50;99.90
3312;DHT22;1668;49.648;8.570;2023-06-10T13:06:38;31.30;99.90
3312;DHT22;1668;49.648;8.570;2023-06-10T13:09:08;31.50;99.90
3312;DHT22;1668;49.648;8.570;2023-06-10T13:11:36;31.60;99.90
3312;DHT22;1668;49.648;8.570;2023-06-10T13:14:03;31.60;99.90
3312;DHT22;1668;49.648;8.570;2023-06-10T13:16:31;31.40;99.90
3312;DHT22;1668;49.648;8.570;2023-06-10T13:18:59;31.50;99.90
3312;DHT22;1668;49.648;8.570;2023-06-10T13:21:27;31.60;99.90
3312;DHT22;1668;49.648;8.570;2023-06-10T13:23:54;31.80;99.90
3312;DHT22;1668;49.648;8.570;2023-06-10T13:26:21;31.80;99.90
3312;DHT22;1668;49.648;8.570;2023-06-10T13:28:48;32.00;99.90
3312;DHT22;1668;49.648;8.570;2023-06-10T13:31:15;32.10;99.90
3312;DHT22;1668;49.648;8.570;2023-06-10T13:33:42;32.30;99.90
3312;DHT22;1668;49.648;8.570;2023-06-10T13:36:10;32.10;99.90
3312;DHT22;1668;49.648;8.570;2023-06-10T13:38:39;32.10;99.90
3312;DHT22;1668;49.648;8.570;2023-06-10T13:41:06;32.20;99.90
3312;DHT22;1668;49.648;8.570;2023-06-10T13:43:33;32.20;99.90
3312;DHT22;1668;49.648;8.570;2023-06-10T13:45:59;32.40;99.90
3312;DHT22;1668;49.648;8.570;2023-06-10T13:48:26;32.30;99.90
3312;DHT22;1668;49.648;8.570;2023-06-10T13:50:53;32.30;99.90
3312;DHT22;1668;49.648;8.570;2023-06-10T13:53:20;32.30;99.90
3312;DHT22;1668;49.648;8.570;2023-06-10T13:55:48;32.40;99.90
3312;DHT22;1668;49.648;8.570;2023-06-10T13:58:15;32.40;99.90
3312;DHT22;1668;49.648;8.570;2023-06-10T14:00:42;32.50;99.90
3312;DHT22;1668;49.648;8.570;2023-06-10T14:03:09;32.50;99.90
3312;DHT22;1668;49.648;8.570;2023-06-10T14:05:36;32.70;99.90
3312;DHT22;1668;49.648;8.570;2023-06-10T14:08:03;33.00;99.90
3312;DHT22;1668;49.648;8.570;2023-06-10T14:10:30;33.00;99.90
3312;DHT22;1668;49.648;8.570;2023-06-10T14:12:58;33.10;99.90
3312;DHT22;1668;49.648;8.570;2023-06-10T14:15:25;33.10;99.90
3312;DHT22;1668;49.648;8.570;2023-06-10T14:17:52;32.90;99.90
3312;DHT22;1668;49.648;8.570;2023-06-10T14:20:19;32.80;99.90
3312;DHT22;1668;49.648;8.570;2023-06-10T14:22:46;32.90;99.90
3312;DHT22;1668;49.648;8.570;2023-06-10T14:25:13;33.10;99.90
3312;DHT22;1668;49.648;8.570;2023-06-10T14:27:40;33.20;99.90
3312;DHT22;1668;49.648;8.570;2023-06-10T14:30:09;33.30;99.90
3312;DHT22;1668;49.648;8.570;2023-06-10T14:32:36;33.40;99.90
3312;DHT22;1668;49.648;8.570;2023-06-10T14:35:03;33.60;99.90
3312;DHT22;1668;49.648;8.570;2023-06-10T14:37:30;33.70;99.90
3312;DHT22;1668;49.648;8.570;2023-06-10T14:39:57;33.80;99.90
3312;DHT22;1668;49.648;8.570;2023-06-10T14:42:24;34.10;99.90
3312;DHT22;1668;49.648;8.570;2023-06-10T14:44:51;34.30;99.90
3312;DHT22;1668;49.648;8.570;2023-06-10T14:47:19;34.30;99.90
3312;DHT22;1668;49.648;8.570;2023-06-10T14:49:46;34.50;99.90
3312;DHT22;1668;49.648;8.570;2023-06-10T14:52:13;34.40;99.90
3312;DHT22;1668;49.648;8.570;2023-06-10T14:54:39;34.40;99.90
3312;DHT22;1668;49.648;8.570;2023-06-10T14:57:06;34.70;99.90
3312;DHT22;1668;49.648;8.570;2023-06-10T14:59:33;34.70;99.90
3312;DHT22;1668;49.648;8.570;2023-06-10T15:02:01;34.30;99.90
3312;DHT22;1668;49.648;8.570;2023-06-10T15:04:29;33.70;99.90
3312;DHT22;1668;49.648;8.570;2023-06-10T15:06:55;33.60;99.90
3312;DHT22;1668;49.648;8.570;2023-06-10T15:09:22;34.10;99.90
3312;DHT22;1668;49.648;8.570;2023-06-10T15:11:49;34.20;99.90
3312;DHT22;1668;49.648;8.570;2023-06-10T15:14:16;34.20;99.90
3312;DHT22;1668;49.648;8.570;2023-06-10T15:16:43;34.20;99.90
3312;DHT22;1668;49.648;8.570;2023-06-10T15:19:10;34.40;99.90
3312;DHT22;1668;49.648;8.570;2023-06-10T15:21:38;34.50;99.90
3312;DHT22;1668;49.648;8.570;2023-06-10T15:24:06;34.70;99.90
3312;DHT22;1668;49.648;8.570;2023-06-10T15:26:33;34.70;99.90
3312;DHT22;1668;49.648;8.570;2023-06-10T15:29:00;34.30;99.90
3312;DHT22;1668;49.648;8.570;2023-06-10T15:31:29;34.50;99.90
3312;DHT22;1668;49.648;8.570;2023-06-10T15:33:57;34.90;99.90
3312;DHT22;1668;49.648;8.570;2023-06-10T15:36:24;35.20;99.90
3312;DHT22;1668;49.648;8.570;2023-06-10T15:38:53;35.30;99.90
3312;DHT22;1668;49.648;8.570;2023-06-10T15:41:20;35.60;99.90
3312;DHT22;1668;49.648;8.570;2023-06-10T15:43:47;35.80;99.90
3312;DHT22;1668;49.648;8.570;2023-06-10T15:46:14;36.20;99.90
3312;DHT22;1668;49.648;8.570;2023-06-10T15:48:40;36.20;99.90
3312;DHT22;1668;49.648;8.570;2023-06-10T15:51:07;35.60;99.90
3312;DHT22;1668;49.648;8.570;2023-06-10T15:53:34;35.20;99.90
3312;DHT22;1668;49.648;8.570;2023-06-10T15:56:03;35.20;99.90
3312;DHT22;1668;49.648;8.570;2023-06-10T15:58:30;34.90;99.90
3312;DHT22;1668;49.648;8.570;2023-06-10T16:00:57;34.60;99.90
3312;DHT22;1668;49.648;8.570;2023-06-10T16:03:24;34.90;99.90
3312;DHT22;1668;49.648;8.570;2023-06-10T16:05:51;35.20;99.90
3312;DHT22;1668;49.648;8.570;2023-06-10T16:08:17;35.40;99.90
3312;DHT22;1668;49.648;8.570;2023-06-10T16:10:44;35.60;99.90